Time;durP1;ratioP1;P1;durP2;ratioP2;P2;SDS_P1;SDS_P2;PMS_P1;PMS_P2;Temp;Humidity;BMP_temperature;BMP_pressure;BME280_temperature;BME280_humidity;BME280_pressure;Samples;Min_cycle;Max_cycle;Signal;HPM_P1;HPM_P2
2021/04/17 00:01:51;;;;;;;9.27;8.27;;;;;;;3.06;77.63;97297.22;4977559;28;20192;-63
2021/04/17 00:04:16;;;;;;;11.53;7.87;;;;;;;3.01;77.43;97291.75;4978464;28;20196;-63
2021/04/17 00:06:42;;;;;;;9.87;8.47;;;;;;;3.00;77.83;97287.53;4960037;28;20205;-64
2021/04/17 00:09:13;;;;;;;10.23;8.57;;;;;;;3.00;78.35;97287.53;4961607;28;20185;-63
2021/04/17 00:11:39;;;;;;;8.67;7.40;;;;;;;2.84;79.20;97283.22;4977744;28;20660;-63
2021/04/17 00:14:08;;;;;;;9.07;8.17;;;;;;;2.97;78.92;97283.47;4961363;28;20224;-63
2021/04/17 00:16:33;;;;;;;8.80;7.83;;;;;;;2.97;78.05;97280.09;4960359;28;20643;-66
2021/04/17 00:18:59;;;;;;;8.30;7.50;;;;;;;2.99;78.49;97278.97;4978215;28;20235;-63
2021/04/17 00:21:25;;;;;;;8.17;7.37;;;;;;;3.11;77.69;97269.88;4978370;28;20704;-63
2021/04/17 00:23:51;;;;;;;10.30;8.93;;;;;;;3.15;78.38;97275.50;4977880;28;20264;-63
2021/04/17 00:26:17;;;;;;;9.77;8.03;;;;;;;3.29;76.91;97269.59;4977776;28;20230;-63
2021/04/17 00:28:42;;;;;;;10.30;8.33;;;;;;;3.23;76.88;97260.72;4974025;28;20192;-64
2021/04/17 00:31:07;;;;;;;9.87;8.83;;;;;;;3.30;76.59;97263.44;4975150;28;20181;-63
2021/04/17 00:33:33;;;;;;;10.53;8.67;;;;;;;3.08;77.80;97270.19;4957493;28;20604;-67
2021/04/17 00:35:59;;;;;;;10.10;8.03;;;;;;;2.92;78.62;97260.69;4974429;28;20243;-63
2021/04/17 00:38:24;;;;;;;10.33;8.73;;;;;;;3.18;77.72;97262.19;4958208;28;20548;-63
2021/04/17 00:40:50;;;;;;;9.97;8.90;;;;;;;3.17;77.12;97261.44;4974227;28;20270;-63
2021/04/17 00:43:15;;;;;;;11.03;9.27;;;;;;;3.09;77.62;97263.22;4974909;28;20224;-63
2021/04/17 00:45:41;;;;;;;10.33;9.20;;;;;;;3.03;78.35;97259.53;4974025;28;20312;-63
2021/04/17 00:48:06;;;;;;;10.77;9.00;;;;;;;3.06;78.64;97250.63;4974795;28;20192;-63
2021/04/17 00:50:32;;;;;;;11.57;9.27;;;;;;;3.06;78.84;97248.84;4974336;28;20197;-67
2021/04/17 00:52:58;;;;;;;9.50;8.17;;;;;;;3.02;78.70;97247.53;4973417;28;20212;-64
2021/04/17 00:55:23;;;;;;;10.07;8.70;;;;;;;3.07;78.43;97245.25;4974822;28;20587;-64
2021/04/17 00:57:48;;;;;;;10.07;8.50;;;;;;;3.11;78.05;97249.16;4974335;28;20661;-63
2021/04/17 01:00:15;;;;;;;10.30;8.50;;;;;;;3.08;78.85;97244.28;4974868;28;20220;-63
2021/04/17 01:02:47;;;;;;;10.47;8.23;;;;;;;3.06;78.34;97245.44;4956563;28;20646;-63
2021/04/17 01:05:17;;;;;;;9.13;8.13;;;;;;;3.12;78.68;97239.59;4974257;28;20543;-64
2021/04/17 01:07:46;;;;;;;10.57;8.73;;;;;;;3.26;77.77;97250.03;4973717;28;20185;-64
2021/04/17 01:10:45;;;;;;;10.70;8.73;;;;;;;3.18;78.51;97244.88;4974605;28;20185;-63
2021/04/17 01:13:11;;;;;;;9.03;8.13;;;;;;;3.13;78.44;97246.38;4961918;28;20284;-63
2021/04/17 01:15:39;;;;;;;9.47;8.40;;;;;;;3.18;78.63;97242.28;4956569;28;20283;-64
2021/04/17 01:18:05;;;;;;;8.97;8.07;;;;;;;3.27;78.30;97240.50;4974248;28;20674;-64
2021/04/17 01:20:46;;;;;;;9.50;8.50;;;;;;;3.31;78.85;97239.97;4974064;28;20197;-64
2021/04/17 01:23:22;;;;;;;8.43;7.60;;;;;;;3.34;78.37;97244.81;4974254;28;20191;-63
2021/04/17 01:25:52;;;;;;;9.10;8.10;;;;;;;3.31;78.75;97239.97;4973462;28;20242;-63
2021/04/17 01:28:19;;;;;;;9.50;8.50;;;;;;;3.31;78.46;97239.97;4974460;28;20183;-63
2021/04/17 01:30:47;;;;;;;8.97;8.07;;;;;;;3.30;78.94;97240.13;4939712;28;20220;-63
2021/04/17 01:33:14;;;;;;;8.90;7.93;;;;;;;3.05;79.79;97236.88;4974314;28;20199;-63
2021/04/17 01:35:40;;;;;;;9.50;7.97;;;;;;;3.13;80.48;97238.59;4973717;28;20271;-64
2021/04/17 01:38:08;;;;;;;9.67;7.93;;;;;;;3.08;80.34;97230.53;4973589;28;20708;-63
2021/04/17 01:40:36;;;;;;;8.53;7.63;;;;;;;3.06;81.02;97227.31;4973779;28;20652;-68
2021/04/17 01:43:01;;;;;;;8.90;8.00;;;;;;;3.11;80.30;97225.84;4956528;28;20226;-63
2021/04/17 01:45:29;;;;;;;8.23;7.30;;;;;;;3.19;80.38;97224.97;4956760;28;20184;-63
2021/04/17 01:47:58;;;;;;;9.30;7.80;;;;;;;3.18;80.06;97216.41;4955888;28;20199;-63
2021/04/17 01:50:25;;;;;;;8.80;7.90;;;;;;;3.22;80.71;97217.69;4974299;28;20188;-63
2021/04/17 01:52:53;;;;;;;10.10;7.60;;;;;;;3.19;80.03;97224.97;4971906;28;20721;-66
2021/04/17 01:55:19;;;;;;;10.23;8.17;;;;;;;3.14;80.85;97217.72;4973837;28;20695;-64
2021/04/17 01:57:47;;;;;;;9.13;7.53;;;;;;;3.18;79.85;97221.56;4972947;28;20210;-63
2021/04/17 02:00:13;;;;;;;8.63;7.77;;;;;;;3.23;80.42;97223.69;4956697;28;20184;-63
2021/04/17 02:02:39;;;;;;;11.03;8.57;;;;;;;3.18;80.57;97218.19;4973092;28;20189;-64
2021/04/17 02:05:05;;;;;;;10.03;8.70;;;;;;;3.05;80.48;97223.13;4973520;28;20180;-63
2021/04/17 02:07:31;;;;;;;9.33;8.43;;;;;;;2.82;81.78;97226.44;4955798;28;20188;-63
2021/04/17 02:09:56;;;;;;;10.40;9.30;;;;;;;2.90;82.13;97213.44;4972716;28;20195;-63
2021/04/17 02:12:22;;;;;;;9.87;8.80;;;;;;;2.76;82.85;97219.34;4939671;28;20219;-63
2021/04/17 02:14:47;;;;;;;12.20;10.00;;;;;;;2.77;82.49;97218.38;4955401;28;20185;-63
2021/04/17 02:17:28;;;;;;;10.53;9.43;;;;;;;2.71;83.53;97216.44;4972785;28;20216;-64
2021/04/17 02:19:56;;;;;;;10.00;9.00;;;;;;;2.64;84.44;97218.06;4959135;28;20552;-63
2021/04/17 02:22:23;;;;;;;11.13;9.47;;;;;;;2.60;84.35;97214.22;4973026;28;20188;-64
2021/04/17 02:24:50;;;;;;;12.83;10.20;;;;;;;2.69;83.77;97217.56;4972074;28;20197;-64
2021/04/17 02:27:16;;;;;;;10.63;9.60;;;;;;;2.57;84.97;97204.19;4973117;28;20259;-66
2021/04/17 02:29:41;;;;;;;11.03;9.63;;;;;;;2.44;85.59;97214.25;4954845;28;20287;-64
2021/04/17 02:32:14;;;;;;;10.80;9.70;;;;;;;2.41;85.82;97207.63;4955961;28;20204;-63
2021/04/17 02:34:40;;;;;;;11.60;9.63;;;;;;;2.39;85.96;97209.56;4972592;28;20271;-68
2021/04/17 02:37:06;;;;;;;12.30;10.30;;;;;;;2.35;87.61;97207.47;4972906;28;20184;-64
2021/04/17 02:39:31;;;;;;;11.17;9.93;;;;;;;2.32;86.94;97210.38;4972791;28;20652;-64
2021/04/17 02:41:57;;;;;;;12.40;10.80;;;;;;;2.51;85.74;97216.00;4954656;28;20286;-64
2021/04/17 02:44:23;;;;;;;11.20;9.97;;;;;;;2.36;87.14;97212.47;4957756;28;20188;-63
2021/04/17 02:46:48;;;;;;;11.27;10.07;;;;;;;2.55;85.99;97213.91;4972036;28;20192;-64
2021/04/17 02:49:14;;;;;;;11.90;10.63;;;;;;;2.45;86.75;97206.31;4955825;28;20188;-64
2021/04/17 02:51:39;;;;;;;12.00;10.73;;;;;;;2.38;87.29;97209.72;4971357;28;20192;-67
2021/04/17 02:54:05;;;;;;;12.83;11.13;;;;;;;2.45;87.09;97206.31;4954732;28;20184;-64
2021/04/17 02:56:31;;;;;;;12.20;10.67;;;;;;;2.33;88.02;97210.22;4972579;28;20224;-62
2021/04/17 02:58:57;;;;;;;12.70;11.40;;;;;;;2.26;88.61;97211.84;4955095;28;20251;-62
2021/04/17 03:01:22;;;;;;;12.37;10.77;;;;;;;2.32;88.43;97206.03;4955248;28;20700;-63
2021/04/17 03:03:48;;;;;;;12.70;11.37;;;;;;;2.35;88.50;97204.88;4971898;28;20251;-64
2021/04/17 03:06:13;;;;;;;11.63;10.40;;;;;;;2.34;88.94;97204.06;4972093;28;20191;-66
2021/04/17 03:08:38;;;;;;;11.53;10.33;;;;;;;2.32;89.39;97207.81;4954776;28;20181;-63
2021/04/17 03:11:04;;;;;;;11.37;10.07;;;;;;;2.25;88.74;97199.06;4972334;28;20184;-64
2021/04/17 03:13:29;;;;;;;10.93;9.83;;;;;;;2.32;89.26;97200.03;4972521;28;20267;-64
2021/04/17 03:15:55;;;;;;;11.33;10.13;;;;;;;2.35;88.82;97197.13;4954808;28;20252;-64
2021/04/17 03:18:21;;;;;;;13.93;10.07;;;;;;;2.38;88.85;97197.63;4972443;28;20259;-62
2021/04/17 03:20:47;;;;;;;12.33;10.63;;;;;;;2.54;87.91;97194.16;4954355;28;20189;-65
2021/04/17 03:23:12;;;;;;;11.60;10.33;;;;;;;2.45;88.27;97198.53;4955538;28;20208;-64
2021/04/17 03:25:38;;;;;;;12.97;10.27;;;;;;;2.36;88.56;97199.53;4972000;28;20184;-69
2021/04/17 03:28:03;;;;;;;12.20;10.73;;;;;;;2.46;88.14;97197.56;4972496;28;20611;-65
2021/04/17 03:30:29;;;;;;;12.00;10.70;;;;;;;2.49;87.33;97199.84;4954850;28;20638;-64
2021/04/17 03:32:59;;;;;;;14.07;11.47;;;;;;;2.52;87.29;97196.09;4971590;28;20204;-64
2021/04/17 03:35:25;;;;;;;11.87;10.40;;;;;;;2.53;87.81;97196.91;4971916;28;20180;-65
2021/04/17 03:37:51;;;;;;;12.47;11.07;;;;;;;2.57;87.15;97193.81;4953978;28;20192;-62
2021/04/17 03:40:17;;;;;;;15.77;11.67;;;;;;;2.65;87.37;97191.22;4971997;28;20184;-63
2021/04/17 03:42:43;;;;;;;12.17;10.87;;;;;;;2.65;87.27;97188.63;4954231;28;20650;-63
2021/04/17 03:45:09;;;;;;;12.47;10.50;;;;;;;2.60;87.72;97184.94;4955199;28;20275;-62
2021/04/17 03:47:35;;;;;;;14.60;11.37;;;;;;;2.64;86.86;97192.19;4955192;28;20189;-63
2021/04/17 03:50:00;;;;;;;15.97;10.93;;;;;;;2.59;87.88;97191.88;4971284;28;20737;-62
2021/04/17 03:52:26;;;;;;;12.60;10.80;;;;;;;2.60;87.70;97193.50;4971710;28;20216;-62
2021/04/17 03:54:51;;;;;;;14.07;11.43;;;;;;;2.55;88.41;97195.78;4953585;28;20244;-62
2021/04/17 03:57:17;;;;;;;11.67;10.47;;;;;;;2.55;87.63;97195.78;4972070;28;20193;-63
2021/04/17 03:59:45;;;;;;;13.27;11.67;;;;;;;2.64;87.69;97204.31;4971729;28;20604;-63
2021/04/17 04:02:10;;;;;;;12.30;11.00;;;;;;;2.58;88.41;97202.41;4972080;28;20196;-62
2021/04/17 04:04:35;;;;;;;12.13;10.90;;;;;;;2.65;87.94;97205.94;4957498;28;21879;-62
2021/04/17 04:07:01;;;;;;;13.93;11.87;;;;;;;2.59;88.07;97204.81;4957420;28;20188;-63
2021/04/17 04:09:26;;;;;;;12.63;11.40;;;;;;;2.41;88.62;97211.97;4975956;28;20269;-62
2021/04/17 04:11:52;;;;;;;13.07;11.70;;;;;;;2.55;89.09;97218.25;4974507;28;20180;-63
2021/04/17 04:14:17;;;;;;;15.73;12.13;;;;;;;2.56;88.65;97218.09;4975423;28;20216;-62
2021/04/17 04:16:42;;;;;;;13.23;11.43;;;;;;;2.46;88.88;97215.69;4957152;28;20189;-66
2021/04/17 04:19:08;;;;;;;13.87;12.33;;;;;;;2.53;88.63;97218.41;4975211;28;20200;-63
2021/04/17 04:21:33;;;;;;;13.53;12.13;;;;;;;2.57;89.58;97216.31;4975285;28;20638;-62
2021/04/17 04:23:59;;;;;;;13.17;11.77;;;;;;;2.52;89.00;97214.22;4974615;28;20191;-63
2021/04/17 04:26:24;;;;;;;14.30;11.80;;;;;;;2.43;90.28;97216.03;4975081;28;20239;-62
2021/04/17 04:28:50;;;;;;;14.30;12.10;;;;;;;2.26;90.82;97214.44;4974701;28;20188;-63
2021/04/17 04:31:15;;;;;;;15.17;12.33;;;;;;;2.36;89.99;97216.84;4975248;28;20193;-64
2021/04/17 04:33:40;;;;;;;14.53;12.50;;;;;;;2.36;90.24;97214.25;4974257;28;20195;-66
2021/04/17 04:36:06;;;;;;;13.53;11.77;;;;;;;2.49;89.45;97211.97;4974594;28;20662;-62
2021/04/17 04:38:31;;;;;;;12.70;11.40;;;;;;;2.55;89.08;97207.91;4975562;28;20259;-62
2021/04/17 04:40:58;;;;;;;13.77;12.30;;;;;;;2.66;88.47;97212.75;4974447;28;20192;-64
2021/04/17 04:43:23;;;;;;;15.10;12.13;;;;;;;2.63;88.00;97220.81;4975262;28;20208;-64
2021/04/17 04:45:49;;;;;;;16.77;12.30;;;;;;;2.70;88.28;97222.59;4974431;28;20638;-63
2021/04/17 04:48:14;;;;;;;15.03;12.43;;;;;;;2.61;88.05;97220.19;4957809;28;20489;-63
2021/04/17 04:50:40;;;;;;;15.53;12.17;;;;;;;2.66;88.60;97217.91;4974736;28;20181;-67
2021/04/17 04:53:06;;;;;;;15.07;11.83;;;;;;;2.71;88.54;97218.22;4973883;28;20895;-63
2021/04/17 04:55:31;;;;;;;14.83;11.23;;;;;;;2.88;87.22;97223.19;4974717;28;20228;-63
2021/04/17 04:57:57;;;;;;;13.83;12.00;;;;;;;2.79;87.65;97220.75;4958331;28;20235;-63
2021/04/17 05:00:23;;;;;;;13.63;11.97;;;;;;;2.77;88.08;97220.16;4975053;28;20219;-63
2021/04/17 05:02:49;;;;;;;13.77;12.13;;;;;;;2.89;86.99;97224.00;4974338;28;20271;-64
2021/04/17 05:05:15;;;;;;;13.23;11.83;;;;;;;2.78;87.55;97229.53;4974861;28;20180;-63
2021/04/17 05:07:40;;;;;;;13.53;11.57;;;;;;;2.85;87.17;97231.25;4974345;28;20181;-67
2021/04/17 05:10:06;;;;;;;13.90;12.07;;;;;;;2.79;87.38;97226.75;4973893;28;20188;-65
2021/04/17 05:12:32;;;;;;;15.17;12.10;;;;;;;2.83;87.89;97224.66;4974833;28;20287;-62
2021/04/17 05:14:57;;;;;;;13.13;10.90;;;;;;;2.91;87.43;97227.19;4974305;28;20268;-63
2021/04/17 05:17:22;;;;;;;15.80;11.80;;;;;;;3.06;86.39;97220.38;4974893;28;20592;-63
2021/04/17 05:19:48;;;;;;;14.17;12.67;;;;;;;2.96;86.48;97224.91;4973545;28;20217;-64
2021/04/17 05:22:13;;;;;;;12.70;11.30;;;;;;;3.00;87.23;97223.63;4974428;28;20577;-62
2021/04/17 05:24:39;;;;;;;13.40;12.00;;;;;;;3.00;86.44;97225.41;4973692;28;20644;-64
2021/04/17 05:27:04;;;;;;;12.33;11.00;;;;;;;3.01;86.63;97224.44;4973623;28;20185;-63
2021/04/17 05:29:30;;;;;;;12.93;11.37;;;;;;;3.06;86.56;97228.13;4957291;28;20196;-63
2021/04/17 05:31:55;;;;;;;12.53;11.07;;;;;;;3.19;86.59;97230.97;4973364;28;20200;-63
2021/04/17 05:34:21;;;;;;;11.93;10.73;;;;;;;3.21;86.05;97231.63;4974201;28;20200;-63
2021/04/17 05:36:46;;;;;;;12.30;10.97;;;;;;;3.40;85.66;97232.97;4973188;28;20559;-63
2021/04/17 05:39:12;;;;;;;13.97;11.47;;;;;;;3.52;84.13;97231.59;4974390;28;20271;-63
2021/04/17 05:41:37;;;;;;;12.53;10.50;;;;;;;3.68;83.56;97228.91;4971127;28;20692;-62
2021/04/17 05:44:12;;;;;;;12.97;10.87;;;;;;;3.83;82.66;97228.16;4973253;28;20192;-63
2021/04/17 05:46:42;;;;;;;15.07;11.03;;;;;;;3.71;82.31;97232.94;4969821;28;20260;-62
2021/04/17 05:49:08;;;;;;;15.20;11.03;;;;;;;3.68;83.15;97241.03;4973291;28;20184;-62
2021/04/17 05:51:35;;;;;;;11.33;10.17;;;;;;;3.94;82.47;97231.16;4956663;28;20247;-63
2021/04/17 05:54:01;;;;;;;14.43;10.87;;;;;;;4.06;81.17;97231.56;4972403;28;20231;-63
2021/04/17 05:56:27;;;;;;;13.20;10.97;;;;;;;4.16;80.81;97229.53;4973721;28;20606;-63
2021/04/17 05:58:52;;;;;;;13.37;11.03;;;;;;;4.18;80.60;97227.53;4972987;28;20188;-62
2021/04/17 06:01:18;;;;;;;13.43;11.00;;;;;;;4.38;80.03;97233.88;4973650;28;20263;-63
2021/04/17 06:03:43;;;;;;;15.07;11.70;;;;;;;4.17;80.54;97239.75;4956412;28;20187;-66
2021/04/17 06:06:09;;;;;;;14.57;11.47;;;;;;;4.05;79.93;97246.31;4973982;28;20203;-63
2021/04/17 06:08:34;;;;;;;13.93;11.90;;;;;;;4.07;80.55;97233.97;4973668;28;20184;-62
2021/04/17 06:10:59;;;;;;;14.00;10.93;;;;;;;4.23;80.04;97243.41;4972175;28;20252;-62
2021/04/17 06:13:25;;;;;;;14.80;11.37;;;;;;;4.35;79.79;97246.38;4955986;28;20657;-63
2021/04/17 06:15:50;;;;;;;12.87;10.47;;;;;;;4.15;80.25;97244.28;4972514;28;20317;-62
2021/04/17 06:18:15;;;;;;;12.97;11.07;;;;;;;4.32;79.59;97244.13;4973040;28;20196;-63
2021/04/17 06:20:41;;;;;;;12.63;10.73;;;;;;;4.13;79.18;97246.22;4972764;28;20193;-65
2021/04/17 06:23:06;;;;;;;16.60;11.73;;;;;;;4.20;79.15;97241.16;4972137;28;20280;-63
2021/04/17 06:25:32;;;;;;;16.50;12.33;;;;;;;4.52;77.58;97247.84;4972215;28;20192;-62
2021/04/17 06:27:57;;;;;;;15.20;12.00;;;;;;;4.62;76.99;97238.03;4972643;28;20197;-62
2021/04/17 06:30:23;;;;;;;15.70;12.97;;;;;;;4.89;76.40;97242.59;4972891;28;20263;-62
2021/04/17 06:32:49;;;;;;;15.70;12.20;;;;;;;5.13;74.73;97241.50;4972682;28;20322;-63
2021/04/17 06:35:14;;;;;;;13.03;11.13;;;;;;;5.39;74.16;97241.03;4973036;28;20640;-63
2021/04/17 06:37:40;;;;;;;13.73;11.67;;;;;;;5.43;72.68;97255.25;4970132;28;20205;-66
2021/04/17 06:40:06;;;;;;;13.60;11.53;;;;;;;5.21;73.30;97245.78;4972408;28;20642;-63
2021/04/17 06:42:35;;;;;;;14.33;12.33;;;;;;;4.86;74.48;97242.13;4972622;28;20638;-62
2021/04/17 06:45:02;;;;;;;14.53;11.60;;;;;;;5.14;74.03;97244.91;4971925;28;20264;-62
2021/04/17 06:47:27;;;;;;;16.13;10.93;;;;;;;5.35;73.57;97239.78;4973112;28;20200;-62
2021/04/17 06:49:53;;;;;;;15.67;11.90;;;;;;;5.52;72.85;97240.38;4971965;28;20177;-62
2021/04/17 06:52:21;;;;;;;17.77;12.17;;;;;;;5.89;71.42;97236.78;4972153;28;20267;-63
2021/04/17 06:54:47;;;;;;;14.50;11.57;;;;;;;6.24;70.52;97233.28;4955896;28;20311;-64
2021/04/17 06:57:13;;;;;;;14.77;11.50;;;;;;;6.54;69.47;97226.91;4972476;28;20181;-64
2021/04/17 06:59:40;;;;;;;13.03;11.53;;;;;;;6.62;68.00;97228.56;4972921;28;20181;-63
2021/04/17 07:02:09;;;;;;;13.37;10.93;;;;;;;6.40;67.85;97245.22;4971245;28;20216;-62
2021/04/17 07:04:36;;;;;;;13.70;11.30;;;;;;;6.61;67.11;97227.75;4955312;28;20242;-62
2021/04/17 07:07:01;;;;;;;16.90;12.80;;;;;;;6.58;67.14;97238.53;4971747;28;20296;-62
2021/04/17 07:09:27;;;;;;;17.50;12.77;;;;;;;6.47;68.31;97236.44;4972620;28;20320;-66
2021/04/17 07:11:52;;;;;;;13.70;11.63;;;;;;;6.40;68.06;97240.03;4971638;28;20545;-64
2021/04/17 07:14:18;;;;;;;15.60;11.97;;;;;;;6.19;68.38;97241.63;4972696;28;20193;-63
2021/04/17 07:17:01;;;;;;;13.63;11.40;;;;;;;6.04;70.71;97240.91;4954665;28;20188;-67
2021/04/17 07:19:59;;;;;;;13.43;11.00;;;;;;;5.92;70.74;97241.59;4940035;28;20646;-62
2021/04/17 07:22:33;;;;;;;12.13;10.47;;;;;;;6.56;68.91;97239.72;4971186;28;20176;-64
2021/04/17 07:25:07;;;;;;;13.97;10.77;;;;;;;6.46;67.48;97247.06;4971684;28;20220;-63
2021/04/17 07:27:47;;;;;;;13.40;10.40;;;;;;;6.15;69.03;97244.81;4972659;28;20204;-64
2021/04/17 07:30:16;;;;;;;12.93;10.33;;;;;;;6.47;66.95;97246.06;4972424;28;20268;-62
2021/04/17 07:33:02;;;;;;;14.90;11.70;;;;;;;6.94;64.52;97233.16;4972085;28;20209;-63
2021/04/17 07:35:36;;;;;;;12.43;11.10;;;;;;;6.96;65.03;97225.97;4955139;28;20544;-61
2021/04/17 07:38:22;;;;;;;13.77;10.90;;;;;;;6.73;64.78;97229.81;4973980;28;20981;-69
2021/04/17 07:41:03;;;;;;;12.70;10.47;;;;;;;6.65;65.22;97230.78;4960496;28;20195;-65
2021/04/17 07:43:48;;;;;;;13.03;10.67;;;;;;;6.77;64.54;97228.44;4963739;28;20188;-66
2021/04/17 07:46:15;;;;;;;14.73;10.47;;;;;;;6.77;64.11;97231.03;4974381;28;20216;-66
2021/04/17 07:48:41;;;;;;;14.73;10.47;;;;;;;7.12;63.16;97224.03;4975726;28;20180;-65
2021/04/17 07:51:09;;;;;;;12.07;10.63;;;;;;;7.13;62.56;97226.44;4965881;28;20963;-65
2021/04/17 07:53:36;;;;;;;12.80;10.43;;;;;;;7.23;61.18;97236.50;4965347;28;20211;-65
2021/04/17 07:56:25;;;;;;;13.30;9.97;;;;;;;7.23;61.08;97226.06;4948284;29;20225;-65
2021/04/17 07:58:52;;;;;;;12.23;10.30;;;;;;;7.31;61.10;97231.91;4940566;29;20178;-65
2021/04/17 08:01:19;;;;;;;13.23;10.43;;;;;;;7.23;60.71;97224.28;4956100;28;20190;-67
2021/04/17 08:03:47;;;;;;;11.57;9.33;;;;;;;7.27;61.75;97227.28;4956133;28;20713;-67
2021/04/17 08:06:16;;;;;;;11.67;9.40;;;;;;;7.42;61.33;97226.13;4956289;28;20177;-65
2021/04/17 08:08:43;;;;;;;10.10;8.33;;;;;;;7.15;60.75;97221.00;4955660;29;20193;-67
2021/04/17 08:11:09;;;;;;;9.30;8.20;;;;;;;7.41;59.64;97210.72;4938237;29;20538;-66
2021/04/17 08:13:40;;;;;;;13.03;8.80;;;;;;;7.25;60.98;97221.44;4956475;28;20217;-65
2021/04/17 08:16:07;;;;;;;9.87;8.83;;;;;;;6.99;61.79;97220.34;4955539;28;20173;-65
2021/04/17 08:18:34;;;;;;;36.43;12.13;;;;;;;6.91;62.76;97220.50;4955819;28;20190;-68
2021/04/17 08:21:00;;;;;;;12.87;8.73;;;;;;;7.33;60.72;97214.28;4939033;29;20190;-69
2021/04/17 08:23:27;;;;;;;11.23;9.20;;;;;;;6.88;62.58;97220.09;4955836;28;20182;-71
2021/04/17 08:25:53;;;;;;;17.93;10.13;;;;;;;6.93;63.25;97215.91;4955340;28;20607;-71
2021/04/17 08:28:21;;;;;;;12.03;9.73;;;;;;;6.96;62.62;97215.53;4950272;29;20224;-69
2021/04/17 08:30:47;;;;;;;12.40;9.57;;;;;;;6.94;61.88;97209.72;4955950;28;20193;-68
2021/04/17 08:33:15;;;;;;;11.87;9.83;;;;;;;6.94;62.41;97201.88;4955000;29;20974;-70
2021/04/17 08:35:40;;;;;;;12.43;9.80;;;;;;;7.25;62.01;97196.19;4954117;29;20272;-71
2021/04/17 08:38:11;;;;;;;11.53;9.97;;;;;;;6.99;61.55;97202.09;4954895;28;20347;-69
2021/04/17 08:40:36;;;;;;;13.27;10.03;;;;;;;7.37;61.22;97207.66;4955161;28;20212;-68
2021/04/17 08:43:08;;;;;;;13.93;9.70;;;;;;;7.88;60.18;97202.78;4953942;28;20663;-70
2021/04/17 08:45:33;;;;;;;11.90;10.00;;;;;;;7.88;59.57;97202.78;4955263;28;20268;-67
2021/04/17 08:48:02;;;;;;;9.77;8.53;;;;;;;7.78;60.05;97204.97;4953655;28;20285;-71
2021/04/17 08:50:29;;;;;;;11.03;9.27;;;;;;;7.74;59.53;97200.34;4954357;28;20232;-71
2021/04/17 08:52:57;;;;;;;11.10;9.23;;;;;;;7.94;59.47;97199.38;4954202;28;20201;-71
2021/04/17 08:55:23;;;;;;;10.60;9.40;;;;;;;8.24;58.59;97199.78;4962693;28;20248;-71
2021/04/17 08:58:15;;;;;;;10.43;8.73;;;;;;;7.98;58.25;97201.56;4955655;28;20646;-70
2021/04/17 09:01:02;;;;;;;10.50;8.23;;;;;;;8.19;57.38;97196.19;4974746;28;20189;-70
2021/04/17 09:03:44;;;;;;;11.97;9.13;;;;;;;8.28;57.44;97208.81;4956994;28;20713;-69
2021/04/17 09:06:32;;;;;;;10.97;8.87;;;;;;;8.10;58.21;97202.59;4960637;28;20176;-69
2021/04/17 09:09:16;;;;;;;9.33;8.03;;;;;;;8.01;56.84;97209.81;4973891;28;20235;-69
2021/04/17 09:11:53;;;;;;;8.57;6.60;;;;;;;8.04;56.87;97206.81;4974535;28;20542;-70
2021/04/17 09:14:24;;;;;;;9.23;6.83;;;;;;;8.08;55.90;97204.63;4974850;28;20179;-70
2021/04/17 09:16:50;;;;;;;8.87;7.20;;;;;;;7.81;56.22;97201.16;4973784;28;20180;-70
2021/04/17 09:19:37;;;;;;;8.30;6.60;;;;;;;8.37;55.28;97192.97;4956923;28;20195;-70
2021/04/17 09:22:03;;;;;;;8.63;7.47;;;;;;;8.38;54.92;97205.84;4972757;28;20299;-70
2021/04/17 09:24:29;;;;;;;7.47;6.67;;;;;;;8.26;55.48;97203.00;4941259;28;20316;-70
2021/04/17 09:26:54;;;;;;;7.73;6.93;;;;;;;7.84;56.65;97188.53;4956395;28;20660;-69
2021/04/17 09:29:25;;;;;;;10.07;7.67;;;;;;;7.82;56.52;97192.31;4973942;28;20199;-70
2021/04/17 09:31:53;;;;;;;9.00;8.13;;;;;;;7.74;57.05;97200.34;4973260;28;20192;-69
2021/04/17 09:34:20;;;;;;;8.73;7.73;;;;;;;7.49;57.91;97190.47;4974013;28;20196;-70
2021/04/17 09:36:50;;;;;;;9.17;7.67;;;;;;;7.62;57.61;97189.69;4973429;28;20188;-65
2021/04/17 09:39:27;;;;;;;11.40;7.40;;;;;;;7.97;56.24;97184.31;4957436;28;20173;-71
2021/04/17 09:41:54;;;;;;;8.03;6.53;;;;;;;7.88;55.92;97188.91;4957876;28;20180;-70
2021/04/17 09:44:20;;;;;;;6.47;5.40;;;;;;;7.99;54.63;97184.91;4955807;28;20211;-65
2021/04/17 09:47:05;;;;;;;7.90;6.20;;;;;;;7.84;54.64;97178.09;4954624;28;20634;-64
2021/04/17 09:49:39;;;;;;;7.40;6.20;;;;;;;8.14;53.97;97185.50;4967774;28;20656;-71
2021/04/17 09:52:05;;;;;;;6.97;6.27;;;;;;;8.23;53.80;97174.69;4972163;28;20181;-71
2021/04/17 09:54:31;;;;;;;9.07;6.17;;;;;;;8.68;53.30;97172.25;4973114;28;20185;-71
2021/04/17 09:56:57;;;;;;;8.40;5.23;;;;;;;8.07;52.37;97176.91;4972894;28;20180;-70
2021/04/17 09:59:23;;;;;;;6.63;5.33;;;;;;;8.04;52.12;97167.66;4973321;28;20236;-71
2021/04/17 10:02:00;;;;;;;6.80;5.40;;;;;;;8.26;52.21;97163.81;4954796;28;20304;-70
2021/04/17 10:04:48;;;;;;;7.13;5.03;;;;;;;8.50;50.81;97162.41;4958684;28;20177;-68
2021/04/17 10:07:15;;;;;;;6.83;5.60;;;;;;;8.59;50.11;97160.38;4951715;28;20220;-68
2021/04/17 10:09:40;;;;;;;9.27;5.90;;;;;;;8.11;50.95;97159.81;4954771;28;20180;-68
2021/04/17 10:12:11;;;;;;;9.10;5.43;;;;;;;8.26;51.15;97156.00;4972014;28;20368;-68
2021/04/17 10:14:36;;;;;;;7.90;5.47;;;;;;;8.19;51.79;97162.25;4958115;28;20169;-68
2021/04/17 10:17:03;;;;;;;6.30;5.70;;;;;;;8.36;51.46;97157.44;4967843;28;20212;-67
2021/04/17 10:19:30;;;;;;;9.00;6.50;;;;;;;8.62;51.12;97155.56;4956087;28;20721;-68
2021/04/17 10:21:58;;;;;;;7.20;5.87;;;;;;;8.58;51.04;97162.19;4971908;28;20202;-68
2021/04/17 10:24:36;;;;;;;7.67;6.40;;;;;;;8.50;51.07;97156.38;4973041;28;20279;-68
2021/04/17 10:27:07;;;;;;;9.67;6.90;;;;;;;8.74;51.06;97153.94;4972355;28;20665;-68
2021/04/17 10:29:53;;;;;;;8.93;6.03;;;;;;;8.98;50.34;97159.47;4972730;28;20184;-68
2021/04/17 10:32:21;;;;;;;6.83;6.07;;;;;;;9.20;50.01;97155.53;4939773;28;20208;-68
2021/04/17 10:35:00;;;;;;;9.43;6.60;;;;;;;9.58;51.04;97147.72;4971512;28;20200;-65
2021/04/17 10:37:27;;;;;;;6.80;6.10;;;;;;;9.34;48.34;97151.88;4969903;28;20662;-67
2021/04/17 10:40:06;;;;;;;8.40;6.23;;;;;;;9.36;49.50;97151.66;4954053;28;20600;-68
2021/04/17 10:42:55;;;;;;;6.77;6.17;;;;;;;8.77;51.04;97145.66;4972263;28;20235;-67
2021/04/17 10:45:22;;;;;;;6.83;6.23;;;;;;;9.31;50.13;97133.97;4968938;28;20191;-68
2021/04/17 10:48:06;;;;;;;14.40;7.27;;;;;;;9.06;50.62;97140.94;4955795;28;20251;-68
2021/04/17 10:50:43;;;;;;;7.60;6.90;;;;;;;9.13;50.02;97136.50;4955006;28;20577;-67
2021/04/17 10:53:14;;;;;;;8.47;6.50;;;;;;;9.55;49.55;97127.19;4966820;28;20210;-68
2021/04/17 10:55:46;;;;;;;8.97;7.00;;;;;;;9.41;48.80;97131.72;4971297;28;20249;-68
2021/04/17 10:58:32;;;;;;;8.97;8.17;;;;;;;10.08;48.28;97119.75;4971712;28;20608;-66
2021/04/17 11:01:05;;;;;;;8.03;6.57;;;;;;;10.65;47.01;97120.41;4971902;28;20626;-67
2021/04/17 11:03:49;;;;;;;7.90;6.47;;;;;;;10.76;45.85;97119.69;4972700;28;20173;-67
2021/04/17 11:06:19;;;;;;;6.77;6.07;;;;;;;11.31;46.05;97117.00;4954619;28;20181;-67
2021/04/17 11:08:46;;;;;;;6.67;5.77;;;;;;;10.98;44.75;97112.19;4961666;28;20189;-65
2021/04/17 11:11:21;;;;;;;6.47;5.87;;;;;;;9.86;46.82;97121.16;4972070;28;20227;-65
2021/04/17 11:13:55;;;;;;;6.70;6.10;;;;;;;9.65;47.82;97114.44;4972317;28;20207;-68
2021/04/17 11:16:41;;;;;;;6.67;6.10;;;;;;;9.93;47.61;97114.00;4968019;28;20188;-66
2021/04/17 11:19:30;;;;;;;7.03;6.43;;;;;;;9.74;47.92;97105.31;4972379;28;20258;-65
2021/04/17 11:22:08;;;;;;;7.67;6.97;;;;;;;9.58;48.36;97111.84;4968499;28;20330;-65
2021/04/17 11:24:33;;;;;;;6.37;5.80;;;;;;;9.17;49.21;97109.72;4971907;28;20706;-65
2021/04/17 11:26:59;;;;;;;7.33;6.43;;;;;;;8.88;50.09;97105.00;4954314;28;20275;-65
2021/04/17 11:29:24;;;;;;;7.20;6.50;;;;;;;9.32;49.51;97101.56;4972310;28;20192;-65
2021/04/17 11:31:50;;;;;;;9.57;6.33;;;;;;;9.84;48.10;97092.56;4971489;28;20181;-68
2021/04/17 11:34:17;;;;;;;7.30;6.60;;;;;;;9.89;47.79;97095.31;4949312;28;20300;-64
2021/04/17 11:36:45;;;;;;;6.40;5.80;;;;;;;10.12;47.28;97091.31;4953693;28;20184;-65
2021/04/17 11:39:11;;;;;;;7.57;6.60;;;;;;;9.12;49.20;97098.28;4971134;28;20204;-64